Time;durP1;ratioP1;P1;durP2;ratioP2;P2;SDS_P1;SDS_P2;PMS_P1;PMS_P2;Temp;Humidity;BMP_temperature;BMP_pressure;BME280_temperature;BME280_humidity;BME280_pressure;Samples;Min_cycle;Max_cycle;Signal;HPM_P1;HPM_P2
2023/03/17 00:00:51;;;;;;;7.07;3.58;;;7.20;99.90;;;;;;5076383;28;20037;-71
2023/03/17 00:03:24;;;;;;;8.15;3.70;;;7.20;99.90;;;;;;5090293;28;20040;-71
2023/03/17 00:05:52;;;;;;;7.80;3.58;;;7.20;99.90;;;;;;5074235;28;20519;-71
2023/03/17 00:08:47;;;;;;;7.35;3.17;;;7.20;99.90;;;;;;5083471;28;20413;-71
2023/03/17 00:11:15;;;;;;;7.63;3.63;;;7.20;99.90;;;;;;5075427;28;20056;-71
2023/03/17 00:13:42;;;;;;;4.35;3.00;;;7.20;99.90;;;;;;5073222;28;20131;-71
2023/03/17 00:16:36;;;;;;;6.88;3.33;;;7.20;99.90;;;;;;5078040;28;20044;-71
2023/03/17 00:19:02;;;;;;;6.10;3.35;;;7.20;99.90;;;;;;5089174;28;20091;-71
2023/03/17 00:21:31;;;;;;;6.47;3.05;;;7.30;99.90;;;;;;5077912;28;20497;-70
2023/03/17 00:23:58;;;;;;;6.03;3.33;;;7.30;99.90;;;;;;5082357;28;20097;-71
2023/03/17 00:26:25;;;;;;;6.45;3.70;;;7.30;99.90;;;;;;5085714;28;20482;-71
2023/03/17 00:28:52;;;;;;;7.50;3.60;;;7.30;99.90;;;;;;5081225;28;20047;-70
2023/03/17 00:31:21;;;;;;;6.10;3.22;;;7.30;99.90;;;;;;5077692;28;20048;-71
2023/03/17 00:33:48;;;;;;;7.07;3.03;;;7.30;99.90;;;;;;5078901;28;20040;-71
2023/03/17 00:36:24;;;;;;;6.13;3.30;;;7.30;99.90;;;;;;5074105;28;20036;-71
2023/03/17 00:38:51;;;;;;;8.43;3.75;;;7.30;99.90;;;;;;5073945;28;20048;-71
2023/03/17 00:41:17;;;;;;;6.63;3.90;;;7.30;99.90;;;;;;5078337;28;20045;-71
2023/03/17 00:43:43;;;;;;;7.22;3.53;;;7.30;99.90;;;;;;5085354;28;20102;-71
2023/03/17 00:46:27;;;;;;;5.60;2.92;;;7.30;99.90;;;;;;5083130;28;20097;-71
2023/03/17 00:48:53;;;;;;;6.38;3.17;;;7.30;99.90;;;;;;5080039;28;20094;-71
2023/03/17 00:51:19;;;;;;;6.43;3.58;;;7.30;99.90;;;;;;5085161;28;20052;-71
2023/03/17 00:53:46;;;;;;;7.82;3.70;;;7.30;99.90;;;;;;5076753;28;20492;-71
2023/03/17 00:56:15;;;;;;;4.97;3.33;;;7.30;99.90;;;;;;5084418;28;20075;-71
2023/03/17 00:58:41;;;;;;;7.60;3.50;;;7.30;99.90;;;;;;5080690;28;20839;-71
2023/03/17 01:01:08;;;;;;;5.85;3.28;;;7.30;99.90;;;;;;5080662;28;20040;-71
2023/03/17 01:03:34;;;;;;;5.78;3.38;;;7.30;99.90;;;;;;5089065;28;20098;-70
2023/03/17 01:06:01;;;;;;;5.55;3.35;;;7.30;99.90;;;;;;5072760;28;20497;-71
2023/03/17 01:08:28;;;;;;;6.30;3.30;;;7.30;99.90;;;;;;5089964;28;20036;-70
2023/03/17 01:10:55;;;;;;;6.55;3.40;;;7.30;99.90;;;;;;5078021;28;20047;-70
2023/03/17 01:13:21;;;;;;;7.65;3.53;;;7.30;99.90;;;;;;5075471;28;20540;-70
2023/03/17 01:15:50;;;;;;;8.27;3.45;;;7.30;99.90;;;;;;5081692;28;20062;-71
2023/03/17 01:18:20;;;;;;;5.75;3.30;;;7.30;99.90;;;;;;5082824;28;20078;-71
2023/03/17 01:20:46;;;;;;;6.13;3.38;;;7.40;99.90;;;;;;5084475;28;20044;-70
2023/03/17 01:23:12;;;;;;;7.07;3.38;;;7.30;99.90;;;;;;5086965;28;20048;-72
2023/03/17 01:25:40;;;;;;;6.10;3.17;;;7.40;99.90;;;;;;5089610;28;20442;-71
2023/03/17 01:28:06;;;;;;;10.57;3.38;;;7.40;99.90;;;;;;5081569;28;20489;-70
2023/03/17 01:30:38;;;;;;;5.20;3.40;;;7.40;99.90;;;;;;5074708;28;20044;-71
2023/03/17 01:33:05;;;;;;;5.63;3.55;;;7.40;99.90;;;;;;5079236;28;20037;-71
2023/03/17 01:35:31;;;;;;;6.80;3.33;;;7.50;99.90;;;;;;5080433;28;20475;-71
2023/03/17 01:37:58;;;;;;;9.27;4.15;;;7.40;99.90;;;;;;5069265;28;20445;-71
2023/03/17 01:40:32;;;;;;;7.80;3.40;;;7.40;99.90;;;;;;5072496;28;20051;-71
2023/03/17 01:43:07;;;;;;;6.47;3.25;;;7.40;99.90;;;;;;5075831;28;20481;-71
2023/03/17 01:46:11;;;;;;;6.30;2.90;;;7.40;99.90;;;;;;5078680;28;20052;-71
2023/03/17 01:48:44;;;;;;;7.47;3.25;;;7.40;99.90;;;;;;5079635;28;20102;-71
2023/03/17 01:51:18;;;;;;;6.05;3.35;;;7.40;99.90;;;;;;5093763;28;20358;-71
2023/03/17 01:53:47;;;;;;;6.50;3.30;;;7.40;99.90;;;;;;5084982;28;20048;-71
2023/03/17 01:56:14;;;;;;;7.28;3.35;;;7.40;99.90;;;;;;5088910;28;20098;-71
2023/03/17 01:58:40;;;;;;;7.90;3.38;;;7.40;99.90;;;;;;5088683;28;20378;-71
2023/03/17 02:01:06;;;;;;;7.43;3.25;;;7.40;99.90;;;;;;5079430;28;20095;-71
2023/03/17 02:03:33;;;;;;;7.70;3.05;;;7.40;99.90;;;;;;5085003;28;20044;-71
2023/03/17 02:06:00;;;;;;;5.45;3.15;;;7.40;99.90;;;;;;5076666;28;20451;-71
2023/03/17 02:08:26;;;;;;;9.15;3.55;;;7.40;99.90;;;;;;5076416;28;20039;-71
2023/03/17 02:10:53;;;;;;;9.05;3.38;;;7.40;99.90;;;;;;5090536;28;20665;-71
2023/03/17 02:13:19;;;;;;;5.60;3.45;;;7.50;99.90;;;;;;5088887;28;20044;-71
2023/03/17 02:15:50;;;;;;;7.00;3.58;;;7.40;99.90;;;;;;5081894;28;20036;-70
2023/03/17 02:18:19;;;;;;;8.85;3.50;;;7.40;99.90;;;;;;5079029;28;20448;-71
2023/03/17 02:20:47;;;;;;;7.65;3.35;;;7.40;99.90;;;;;;5085851;28;20709;-70
2023/03/17 02:23:21;;;;;;;5.53;3.50;;;7.30;99.90;;;;;;5074914;28;20382;-71
2023/03/17 02:25:49;;;;;;;6.60;3.20;;;7.30;99.90;;;;;;5081877;28;20045;-70
2023/03/17 02:28:21;;;;;;;4.68;2.88;;;7.30;99.90;;;;;;5088170;28;20039;-71
2023/03/17 02:30:47;;;;;;;7.22;3.55;;;7.30;99.90;;;;;;5080721;28;20040;-70
2023/03/17 02:33:13;;;;;;;7.82;3.55;;;7.20;99.90;;;;;;5088016;28;20037;-70
2023/03/17 02:35:40;;;;;;;7.85;3.53;;;7.20;99.90;;;;;;5090625;28;20044;-71
2023/03/17 02:38:06;;;;;;;5.32;3.35;;;7.20;99.90;;;;;;5090010;28;20143;-70
2023/03/17 02:40:32;;;;;;;6.65;3.20;;;7.10;99.90;;;;;;5090010;28;20036;-70
2023/03/17 02:42:58;;;;;;;8.15;3.83;;;7.10;99.90;;;;;;5090742;28;20055;-70
2023/03/17 02:45:24;;;;;;;5.20;3.35;;;7.20;99.90;;;;;;5074394;28;20080;-70
2023/03/17 02:47:50;;;;;;;5.20;2.97;;;7.20;99.90;;;;;;5086564;28;20037;-75
2023/03/17 02:50:24;;;;;;;5.55;3.00;;;7.20;99.90;;;;;;5077860;28;20521;-71
2023/03/17 02:52:50;;;;;;;9.27;3.67;;;7.20;99.90;;;;;;5081269;28;20432;-71
2023/03/17 02:55:16;;;;;;;9.93;4.07;;;7.20;99.90;;;;;;5084438;28;20036;-71
2023/03/17 02:57:42;;;;;;;5.13;3.22;;;7.20;99.90;;;;;;5079330;28;20040;-71
2023/03/17 03:00:09;;;;;;;7.00;3.65;;;7.10;99.90;;;;;;5084501;28;20043;-70
2023/03/17 03:02:36;;;;;;;4.53;2.88;;;7.20;99.90;;;;;;5084615;28;20131;-70
2023/03/17 03:05:04;;;;;;;6.93;3.50;;;7.20;99.90;;;;;;5074791;28;20158;-70
2023/03/17 03:07:30;;;;;;;9.95;3.67;;;7.10;99.90;;;;;;5079212;28;20322;-70
2023/03/17 03:09:55;;;;;;;12.07;3.90;;;7.10;99.90;;;;;;5080475;28;20072;-71
2023/03/17 03:12:21;;;;;;;5.53;3.30;;;7.10;99.90;;;;;;5087771;28;20532;-70
2023/03/17 03:14:47;;;;;;;7.35;3.70;;;7.10;99.90;;;;;;5087532;28;20039;-70
2023/03/17 03:17:14;;;;;;;6.35;3.58;;;7.10;99.90;;;;;;5088442;28;20119;-70
2023/03/17 03:19:39;;;;;;;8.95;3.10;;;7.10;99.90;;;;;;5087976;28;20485;-71
2023/03/17 03:22:05;;;;;;;8.75;3.85;;;7.00;99.90;;;;;;5080701;28;20093;-71
2023/03/17 03:24:31;;;;;;;6.30;3.70;;;7.00;99.90;;;;;;5076967;28;20354;-71
2023/03/17 03:26:57;;;;;;;7.10;3.22;;;7.00;99.90;;;;;;5089293;28;20119;-72
2023/03/17 03:29:22;;;;;;;8.40;3.33;;;7.00;99.90;;;;;;5083656;28;20040;-70
2023/03/17 03:31:48;;;;;;;5.95;3.72;;;7.00;99.90;;;;;;5079535;28;20032;-69
2023/03/17 03:34:15;;;;;;;6.90;3.55;;;7.00;99.90;;;;;;5084399;28;20049;-71
2023/03/17 03:36:40;;;;;;;5.15;3.55;;;7.00;99.90;;;;;;5072057;28;20115;-70
2023/03/17 03:39:07;;;;;;;8.10;3.35;;;7.20;99.90;;;;;;5080523;28;20128;-70
2023/03/17 03:41:33;;;;;;;6.32;3.78;;;7.00;99.90;;;;;;5080415;28;20063;-70
2023/03/17 03:43:59;;;;;;;5.78;3.38;;;7.00;99.90;;;;;;5087252;28;20449;-70
2023/03/17 03:46:25;;;;;;;4.82;3.15;;;7.00;99.90;;;;;;5085581;28;20047;-70
2023/03/17 03:48:51;;;;;;;6.18;3.22;;;6.90;99.90;;;;;;5077848;28;20436;-70
2023/03/17 03:51:17;;;;;;;5.20;3.20;;;6.90;99.90;;;;;;5072043;28;20054;-70
2023/03/17 03:53:43;;;;;;;5.60;3.67;;;6.90;99.90;;;;;;5080518;28;20134;-70
2023/03/17 03:56:09;;;;;;;7.32;3.30;;;6.90;99.90;;;;;;5078201;28;20046;-70
2023/03/17 03:58:34;;;;;;;8.48;3.95;;;6.90;99.90;;;;;;5077951;28;20152;-71
2023/03/17 04:01:04;;;;;;;7.45;3.63;;;6.90;99.90;;;;;;5075446;28;20113;-71
2023/03/17 04:03:29;;;;;;;5.90;3.20;;;6.90;99.90;;;;;;5075165;28;20113;-70
2023/03/17 04:05:55;;;;;;;6.43;3.40;;;7.00;99.90;;;;;;5089119;28;20450;-71
2023/03/17 04:08:21;;;;;;;5.10;3.17;;;7.00;99.90;;;;;;5082067;28;20123;-70
2023/03/17 04:10:46;;;;;;;6.68;3.33;;;7.00;99.90;;;;;;5083358;28;20074;-71
2023/03/17 04:13:13;;;;;;;7.25;3.53;;;7.00;99.90;;;;;;5077064;28;20094;-71
2023/03/17 04:15:38;;;;;;;5.72;3.53;;;7.00;99.90;;;;;;5086000;28;20044;-71
2023/03/17 04:18:04;;;;;;;8.10;3.83;;;7.00;99.90;;;;;;5089485;28;20032;-71
2023/03/17 04:20:30;;;;;;;6.93;3.50;;;7.20;99.90;;;;;;5066273;28;20069;-71
2023/03/17 04:22:56;;;;;;;7.10;3.75;;;7.00;99.90;;;;;;5075177;28;20451;-71
2023/03/17 04:25:21;;;;;;;6.13;3.47;;;6.90;99.90;;;;;;5083080;28;20111;-71
2023/03/17 04:27:47;;;;;;;6.28;3.15;;;6.90;99.90;;;;;;5077235;28;20148;-70
2023/03/17 04:30:15;;;;;;;9.95;3.85;;;7.00;99.90;;;;;;5094786;28;20052;-70
2023/03/17 04:32:42;;;;;;;5.70;3.30;;;6.90;99.90;;;;;;5078776;28;20093;-70
2023/03/17 04:35:15;;;;;;;7.32;3.78;;;6.90;99.90;;;;;;5084828;28;20040;-71
2023/03/17 04:37:40;;;;;;;5.72;3.63;;;6.90;99.90;;;;;;5078756;28;20131;-70
2023/03/17 04:40:10;;;;;;;6.13;3.28;;;6.80;99.90;;;;;;5084885;28;20123;-70
2023/03/17 04:42:36;;;;;;;6.38;3.30;;;6.80;99.90;;;;;;5076289;28;20115;-70
2023/03/17 04:45:08;;;;;;;7.72;3.65;;;6.80;99.90;;;;;;5082534;28;20036;-69
2023/03/17 04:47:34;;;;;;;5.72;3.40;;;6.70;99.90;;;;;;5084252;28;20089;-70
2023/03/17 04:50:00;;;;;;;5.75;3.53;;;6.70;99.90;;;;;;5074837;28;20132;-71
2023/03/17 04:52:27;;;;;;;6.80;4.20;;;6.70;99.90;;;;;;5084403;28;20048;-70
2023/03/17 04:54:52;;;;;;;6.75;3.75;;;6.70;99.90;;;;;;5077868;28;20397;-71
2023/03/17 04:57:18;;;;;;;6.13;3.47;;;6.70;99.90;;;;;;5081418;28;20040;-70
2023/03/17 04:59:44;;;;;;;7.68;3.47;;;6.60;99.90;;;;;;5078271;28;20124;-71
2023/03/17 05:02:09;;;;;;;5.15;3.20;;;6.60;99.90;;;;;;5074748;28;20039;-71
2023/03/17 05:04:35;;;;;;;7.65;3.53;;;6.60;99.90;;;;;;5077086;28;20036;-71
2023/03/17 05:07:01;;;;;;;6.35;3.65;;;6.70;99.90;;;;;;5074399;28;20149;-70
2023/03/17 05:09:27;;;;;;;8.43;4.13;;;6.60;99.90;;;;;;5074891;28;20189;-71
2023/03/17 05:11:53;;;;;;;5.60;3.45;;;6.60;99.90;;;;;;5072326;28;20040;-70
2023/03/17 05:14:20;;;;;;;6.93;3.45;;;6.60;99.90;;;;;;5080009;28;20504;-70
2023/03/17 05:16:49;;;;;;;7.40;3.40;;;6.60;99.90;;;;;;5078718;28;20119;-70
2023/03/17 05:19:15;;;;;;;5.32;3.58;;;6.60;99.90;;;;;;5092368;28;20070;-70
2023/03/17 05:21:41;;;;;;;4.97;3.15;;;6.60;99.90;;;;;;5085631;28;20444;-71
2023/03/17 05:24:07;;;;;;;7.78;3.88;;;6.60;99.90;;;;;;5078937;28;20036;-71
2023/03/17 05:26:33;;;;;;;5.65;3.47;;;6.60;99.90;;;;;;5080949;28;20076;-71
2023/03/17 05:28:59;;;;;;;6.88;3.60;;;6.70;99.90;;;;;;5084880;28;20155;-71
2023/03/17 05:31:25;;;;;;;8.18;3.58;;;6.70;99.90;;;;;;5090210;28;20044;-70
2023/03/17 05:33:50;;;;;;;10.43;3.78;;;6.70;99.90;;;;;;5086932;28;20044;-70
2023/03/17 05:36:17;;;;;;;5.88;3.85;;;6.70;99.90;;;;;;5085115;28;20114;-71
2023/03/17 05:38:43;;;;;;;7.28;3.50;;;6.70;99.90;;;;;;5081532;28;20445;-70
2023/03/17 05:41:09;;;;;;;8.48;3.83;;;6.70;99.90;;;;;;5090305;28;20124;-70
2023/03/17 05:43:36;;;;;;;5.95;3.60;;;6.70;99.90;;;;;;5087182;28;20055;-70
2023/03/17 05:46:02;;;;;;;6.90;3.97;;;6.70;99.90;;;;;;5084607;28;20064;-70
2023/03/17 05:48:28;;;;;;;7.05;3.70;;;6.80;99.90;;;;;;5089438;28;20040;-70
2023/03/17 05:50:53;;;;;;;6.18;3.40;;;6.80;99.90;;;;;;5082573;28;20131;-70
2023/03/17 05:53:19;;;;;;;7.75;3.88;;;6.80;99.90;;;;;;5081917;28;20044;-71
2023/03/17 05:55:45;;;;;;;9.73;4.20;;;6.80;99.90;;;;;;5075909;28;20045;-71
2023/03/17 05:58:11;;;;;;;8.57;3.90;;;6.90;99.90;;;;;;5098679;28;20051;-71
2023/03/17 06:00:37;;;;;;;6.78;3.50;;;6.90;99.90;;;;;;5080859;28;20409;-71
2023/03/17 06:03:03;;;;;;;6.75;3.97;;;6.90;99.90;;;;;;5083438;28;20044;-71
2023/03/17 06:05:30;;;;;;;5.78;3.30;;;7.00;99.90;;;;;;5065840;28;20146;-71
2023/03/17 06:07:56;;;;;;;9.15;3.78;;;7.00;99.90;;;;;;5089845;28;20039;-70
2023/03/17 06:10:22;;;;;;;7.03;3.78;;;7.00;99.90;;;;;;5091369;28;20048;-70
2023/03/17 06:12:48;;;;;;;10.05;3.50;;;7.00;99.90;;;;;;5082888;28;20490;-70
2023/03/17 06:15:15;;;;;;;7.97;3.90;;;7.10;99.90;;;;;;5084164;28;20032;-70
2023/03/17 06:17:41;;;;;;;9.20;3.50;;;7.10;99.90;;;;;;5082703;28;20065;-70
2023/03/17 06:20:08;;;;;;;6.75;3.42;;;7.10;99.90;;;;;;5075983;28;20507;-70
2023/03/17 06:22:33;;;;;;;9.15;3.47;;;7.10;99.90;;;;;;5089679;28;20052;-70
2023/03/17 06:24:59;;;;;;;7.05;3.30;;;7.20;99.90;;;;;;5084708;28;20037;-70
2023/03/17 06:27:25;;;;;;;6.05;3.80;;;7.20;99.90;;;;;;5081358;28;20058;-70
2023/03/17 06:29:52;;;;;;;7.60;3.90;;;7.30;99.90;;;;;;5057962;28;20044;-71
2023/03/17 06:32:18;;;;;;;7.03;3.67;;;7.30;99.90;;;;;;5080630;28;20055;-70
2023/03/17 06:34:44;;;;;;;6.78;3.70;;;7.40;99.90;;;;;;5079024;28;20066;-71
2023/03/17 06:37:09;;;;;;;5.88;3.25;;;7.40;99.90;;;;;;5082314;28;20630;-71
2023/03/17 06:39:36;;;;;;;8.82;3.67;;;7.40;99.90;;;;;;5095399;28;20109;-70
2023/03/17 06:42:03;;;;;;;5.88;3.55;;;7.50;99.90;;;;;;5080269;28;20054;-71
2023/03/17 06:44:29;;;;;;;6.05;3.70;;;7.50;99.90;;;;;;5093390;28;20055;-70
2023/03/17 06:46:55;;;;;;;8.40;3.53;;;7.50;99.90;;;;;;5088912;28;20039;-71
2023/03/17 06:49:21;;;;;;;7.60;3.40;;;7.50;99.90;;;;;;5076349;28;20124;-71
2023/03/17 06:51:47;;;;;;;5.95;3.90;;;7.50;99.90;;;;;;5081462;28;20131;-70
2023/03/17 06:54:12;;;;;;;7.15;3.42;;;7.60;99.90;;;;;;5085220;28;20032;-70
2023/03/17 06:56:38;;;;;;;8.98;4.00;;;7.60;99.90;;;;;;5078987;28;20141;-70
2023/03/17 06:59:04;;;;;;;9.65;4.07;;;7.50;99.90;;;;;;5077694;28;20154;-69
2023/03/17 07:01:29;;;;;;;6.18;3.50;;;7.60;99.90;;;;;;5091761;28;20036;-69
2023/03/17 07:03:55;;;;;;;6.75;3.50;;;7.60;99.90;;;;;;5089881;28;20392;-69
2023/03/17 07:06:22;;;;;;;5.65;3.67;;;7.70;99.90;;;;;;5079987;28;20036;-69
2023/03/17 07:08:48;;;;;;;5.95;3.70;;;7.80;99.90;;;;;;5088068;28;20040;-70
2023/03/17 07:11:14;;;;;;;8.05;3.42;;;7.80;99.90;;;;;;5085708;28;20135;-70
2023/03/17 07:13:40;;;;;;;8.23;4.20;;;7.80;99.90;;;;;;5094303;28;20047;-69
2023/03/17 07:16:06;;;;;;;7.28;3.70;;;7.90;99.90;;;;;;5082969;28;20059;-69
2023/03/17 07:18:32;;;;;;;6.35;3.75;;;7.90;99.90;;;;;;5076932;28;20032;-69
2023/03/17 07:21:00;;;;;;;8.00;4.05;;;7.90;99.90;;;;;;5073799;28;20493;-69
2023/03/17 07:23:27;;;;;;;7.78;4.13;;;7.90;99.90;;;;;;5078980;28;20052;-69
2023/03/17 07:25:52;;;;;;;5.45;3.20;;;8.00;99.90;;;;;;5084957;28;20039;-69
2023/03/17 07:28:20;;;;;;;8.95;3.97;;;8.10;99.90;;;;;;5089011;28;20362;-69
2023/03/17 07:30:48;;;;;;;8.23;4.30;;;8.10;99.90;;;;;;5091080;28;20531;-69
2023/03/17 07:33:15;;;;;;;7.05;3.60;;;8.10;99.90;;;;;;5080102;28;20121;-69
2023/03/17 07:35:42;;;;;;;7.68;3.78;;;8.20;99.90;;;;;;5076973;28;20119;-69
2023/03/17 07:38:08;;;;;;;10.10;4.00;;;8.30;99.90;;;;;;5073635;28;20048;-69
2023/03/17 07:40:34;;;;;;;6.63;3.67;;;8.40;99.90;;;;;;5081840;28;20044;-69
2023/03/17 07:43:00;;;;;;;9.77;4.10;;;8.50;99.90;;;;;;5076713;28;20047;-69
2023/03/17 07:45:26;;;;;;;8.18;3.85;;;8.70;99.90;;;;;;5073750;28;20044;-70
2023/03/17 07:47:52;;;;;;;9.65;3.72;;;8.80;99.90;;;;;;5074205;28;20048;-70
2023/03/17 07:50:19;;;;;;;12.52;3.85;;;9.00;99.90;;;;;;5093989;28;20044;-70
2023/03/17 07:52:44;;;;;;;8.32;3.63;;;9.10;99.90;;;;;;5094090;28;20125;-70
2023/03/17 07:55:11;;;;;;;6.70;3.90;;;9.20;99.90;;;;;;5092648;28;20137;-69
2023/03/17 07:57:37;;;;;;;7.38;4.22;;;9.30;99.90;;;;;;5093443;28;20040;-70
2023/03/17 08:00:09;;;;;;;6.65;3.95;;;9.50;99.90;;;;;;5083970;28;20123;-70
2023/03/17 08:02:36;;;;;;;6.88;3.90;;;9.50;99.90;;;;;;5079163;28;20080;-69
2023/03/17 08:05:03;;;;;;;6.35;3.55;;;9.60;99.90;;;;;;5085234;28;20043;-70
2023/03/17 08:07:30;;;;;;;7.38;3.53;;;9.60;99.90;;;;;;5090441;28;20335;-70
2023/03/17 08:09:56;;;;;;;11.88;3.88;;;9.70;99.90;;;;;;5086127;28;20044;-69
2023/03/17 08:12:24;;;;;;;7.07;3.97;;;9.70;99.90;;;;;;5092468;28;20044;-69
2023/03/17 08:14:50;;;;;;;6.67;3.93;;;9.80;99.90;;;;;;5092866;28;20044;-69
2023/03/17 08:17:16;;;;;;;6.93;3.53;;;9.80;99.90;;;;;;5093747;28;20058;-69
2023/03/17 08:19:42;;;;;;;8.35;3.70;;;9.90;99.90;;;;;;5087278;28;20112;-69
2023/03/17 08:22:08;;;;;;;7.18;3.88;;;10.00;99.90;;;;;;5095490;28;20086;-69
2023/03/17 08:24:35;;;;;;;11.27;4.03;;;10.00;99.90;;;;;;5088930;28;20055;-70
2023/03/17 08:27:01;;;;;;;6.78;3.72;;;10.00;99.90;;;;;;5081484;28;20044;-70
2023/03/17 08:29:27;;;;;;;6.38;3.97;;;10.00;99.90;;;;;;5080981;28;20409;-70
2023/03/17 08:31:53;;;;;;;4.88;3.38;;;10.20;99.90;;;;;;5092349;28;20514;-71
2023/03/17 08:34:19;;;;;;;9.95;3.70;;;10.10;99.90;;;;;;5083980;28;20119;-70
2023/03/17 08:36:45;;;;;;;8.85;4.05;;;10.10;99.90;;;;;;5073392;28;20047;-70
2023/03/17 08:39:10;;;;;;;7.63;3.95;;;10.10;99.90;;;;;;5072593;28;20119;-70
2023/03/17 08:41:37;;;;;;;4.97;3.40;;;10.00;99.90;;;;;;5073041;28;20039;-70
2023/03/17 08:44:03;;;;;;;7.20;3.78;;;10.00;99.90;;;;;;5078457;28;20040;-71
2023/03/17 08:46:31;;;;;;;6.57;3.92;;;10.00;99.90;;;;;;5085374;28;20094;-70
2023/03/17 08:48:58;;;;;;;;;;;10.00;99.90;;;;;;5072713;28;20474;-70
2023/03/17 08:51:26;;;;;;;6.60;3.65;;;10.00;99.90;;;;;;5092972;28;19923;-71
2023/03/17 08:53:53;;;;;;;10.10;3.90;;;10.10;99.90;;;;;;5090505;28;20123;-70
2023/03/17 08:56:19;;;;;;;12.80;4.25;;;10.10;99.90;;;;;;5090291;28;20548;-71
2023/03/17 08:58:46;;;;;;;5.40;3.67;;;10.30;99.90;;;;;;5072958;28;20045;-69
2023/03/17 09:01:12;;;;;;;8.18;4.15;;;10.40;99.90;;;;;;5091170;28;20059;-68
2023/03/17 09:03:39;;;;;;;6.10;3.42;;;10.50;99.90;;;;;;5079015;28;20047;-69
2023/03/17 09:06:06;;;;;;;8.88;3.60;;;10.70;99.90;;;;;;5083118;28;20044;-71
2023/03/17 09:08:33;;;;;;;11.40;3.77;;;10.80;99.90;;;;;;5073296;28;20036;-72
2023/03/17 09:11:01;;;;;;;6.55;3.50;;;11.00;99.90;;;;;;5067159;28;20073;-69
2023/03/17 09:13:27;;;;;;;9.43;3.92;;;11.20;99.90;;;;;;5093728;28;20136;-70
2023/03/17 09:15:53;;;;;;;8.07;3.92;;;11.30;99.90;;;;;;5074230;28;20037;-69
2023/03/17 09:18:19;;;;;;;8.60;3.38;;;11.30;99.90;;;;;;5071228;28;20052;-70
2023/03/17 09:20:45;;;;;;;9.18;3.78;;;11.50;99.90;;;;;;5071992;28;20048;-69
2023/03/17 09:23:11;;;;;;;6.18;3.50;;;11.70;99.90;;;;;;5083006;28;20412;-71
2023/03/17 09:25:41;;;;;;;9.77;4.03;;;12.00;99.90;;;;;;5092594;28;20052;-70
2023/03/17 09:28:07;;;;;;;5.95;3.33;;;12.10;99.90;;;;;;5092887;28;20093;-70
2023/03/17 09:30:33;;;;;;;6.53;3.63;;;12.30;99.90;;;;;;5087013;28;20037;-70
2023/03/17 09:32:59;;;;;;;6.40;3.70;;;12.30;99.90;;;;;;5070774;28;20041;-70
2023/03/17 09:35:30;;;;;;;7.93;3.95;;;12.40;99.90;;;;;;5075564;28;20041;-70
2023/03/17 09:37:56;;;;;;;5.47;3.60;;;12.30;99.90;;;;;;5087697;28;20048;-70
2023/03/17 09:40:34;;;;;;;5.97;3.30;;;12.40;99.90;;;;;;5078982;28;20392;-70
2023/03/17 09:43:19;;;;;;;9.13;4.43;;;12.70;99.90;;;;;;5072112;28;20048;-70
2023/03/17 09:45:45;;;;;;;7.90;4.03;;;12.90;99.90;;;;;;5073046;28;20044;-71
2023/03/17 09:48:48;;;;;;;6.82;3.78;;;13.10;99.90;;;;;;5075066;28;20047;-71
2023/03/17 09:51:17;;;;;;;8.82;3.97;;;13.20;99.90;;;;;;5075058;28;20088;-69
2023/03/17 09:54:01;;;;;;;5.40;3.65;;;13.40;99.90;;;;;;5076791;28;20040;-70
2023/03/17 09:56:30;;;;;;;7.25;4.00;;;13.50;99.90;;;;;;5073938;28;20397;-70
2023/03/17 09:59:13;;;;;;;9.70;3.90;;;13.70;99.90;;;;;;5072493;28;20143;-71
2023/03/17 10:01:41;;;;;;;7.18;3.95;;;13.90;99.90;;;;;;5092363;28;20059;-70
2023/03/17 10:04:09;;;;;;;7.13;3.78;;;14.10;99.90;;;;;;5074322;28;20036;-70
2023/03/17 10:06:37;;;;;;;;;;;14.40;99.90;;;;;;5074970;28;20041;-71
2023/03/17 10:09:21;;;;;;;5.72;3.55;;;14.40;99.90;;;;;;5076039;28;19927;-72
2023/03/17 10:11:53;;;;;;;7.47;3.30;;;14.50;99.90;;;;;;5075722;28;20089;-70
2023/03/17 10:14:47;;;;;;;8.45;3.83;;;14.70;99.90;;;;;;5085775;28;20062;-71
2023/03/17 10:17:18;;;;;;;6.60;3.92;;;14.90;99.90;;;;;;5080039;28;20041;-71
2023/03/17 10:19:49;;;;;;;10.50;4.30;;;15.10;99.90;;;;;;5075696;28;20071;-71
2023/03/17 10:22:28;;;;;;;9.02;3.65;;;15.30;99.90;;;;;;5075413;28;20511;-71
2023/03/17 10:25:00;;;;;;;6.45;3.67;;;15.40;99.90;;;;;;5076020;28;20052;-70
2023/03/17 10:27:27;;;;;;;6.85;3.85;;;15.40;99.90;;;;;;5092366;28;20497;-71
2023/03/17 10:29:53;;;;;;;6.72;3.72;;;15.50;99.90;;;;;;5083728;28;20037;-70
2023/03/17 10:32:18;;;;;;;8.00;4.00;;;15.70;99.90;;;;;;5080074;28;20104;-70
2023/03/17 10:34:47;;;;;;;5.72;3.60;;;15.80;99.90;;;;;;5095697;28;20064;-70
2023/03/17 10:37:22;;;;;;;5.93;4.00;;;16.10;99.90;;;;;;5089539;28;20052;-71
2023/03/17 10:39:51;;;;;;;4.97;3.75;;;16.50;99.90;;;;;;5082997;28;20051;-71
2023/03/17 10:42:24;;;;;;;8.10;3.53;;;17.00;99.90;;;;;;5076580;28;20123;-72
2023/03/17 10:45:12;;;;;;;9.52;4.00;;;17.30;99.90;;;;;;5073300;28;20044;-72
2023/03/17 10:47:39;;;;;;;7.50;3.50;;;17.80;99.90;;;;;;5075787;28;20505;-70
2023/03/17 10:50:17;;;;;;;10.57;3.92;;;18.30;99.90;;;;;;5074866;28;20060;-71
2023/03/17 10:52:46;;;;;;;7.15;3.83;;;18.60;96.70;;;;;;5074586;28;20037;-71
2023/03/17 10:55:15;;;;;;;9.55;4.78;;;18.90;98.70;;;;;;5073298;28;20097;-70
2023/03/17 10:57:51;;;;;;;6.82;3.85;;;19.10;97.30;;;;;;5074367;28;20040;-71
2023/03/17 11:00:19;;;;;;;7.40;3.72;;;19.20;95.20;;;;;;5094723;28;20051;-71
2023/03/17 11:02:51;;;;;;;6.85;4.03;;;19.40;97.40;;;;;;5092358;28;20068;-71
2023/03/17 11:05:20;;;;;;;6.75;3.97;;;19.60;96.50;;;;;;5073675;28;20099;-72
2023/03/17 11:07:46;;;;;;;8.80;4.63;;;19.90;95.00;;;;;;5089597;28;20040;-71
2023/03/17 11:10:24;;;;;;;9.65;4.57;;;20.00;94.10;;;;;;5082118;28;20051;-71
2023/03/17 11:13:00;;;;;;;12.68;4.88;;;20.00;93.20;;;;;;5093257;28;20036;-72
2023/03/17 11:15:34;;;;;;;9.00;4.78;;;20.00;94.00;;;;;;5093799;28;20055;-72
2023/03/17 11:18:11;;;;;;;7.25;4.10;;;19.80;93.00;;;;;;5093929;28;20051;-73
2023/03/17 11:20:55;;;;;;;8.07;4.28;;;19.40;94.60;;;;;;5094229;28;20036;-71
2023/03/17 11:23:45;;;;;;;9.38;3.92;;;19.20;93.70;;;;;;5078421;28;20177;-71
2023/03/17 11:26:23;;;;;;;9.18;4.10;;;19.20;93.10;;;;;;5087152;28;20048;-71
2023/03/17 11:29:15;;;;;;;7.97;4.43;;;19.10;94.50;;;;;;5092672;28;20040;-71
2023/03/17 11:32:06;;;;;;;10.73;4.25;;;19.50;95.10;;;;;;5078670;28;20088;-71
2023/03/17 11:34:35;;;;;;;7.43;4.10;;;20.00;93.90;;;;;;5074367;28;20045;-72
2023/03/17 11:37:08;;;;;;;7.70;3.90;;;20.40;94.00;;;;;;5084821;28;20051;-71
2023/03/17 11:39:46;;;;;;;6.38;4.28;;;20.60;93.10;;;;;;5091729;28;20127;-72
2023/03/17 11:42:36;;;;;;;6.75;3.67;;;20.80;93.20;;;;;;5092457;28;20070;-71
2023/03/17 11:45:08;;;;;;;8.07;4.40;;;21.20;91.30;;;;;;5092830;28;20047;-72
2023/03/17 11:47:41;;;;;;;6.60;3.88;;;21.70;93.40;;;;;;5093877;28;20044;-72
2023/03/17 11:50:45;;;;;;;7.65;3.90;;;22.00;91.10;;;;;;5078803;28;20074;-72
2023/03/17 11:53:30;;;;;;;5.63;3.90;;;22.10;89.10;;;;;;5072721;28;20557;-70
2023/03/17 11:56:03;;;;;;;9.43;4.13;;;22.40;88.90;;;;;;5074771;28;20102;-71
2023/03/17 11:58:36;;;;;;;7.22;4.28;;;22.50;89.40;;;;;;5085968;28;20083;-72
2023/03/17 12:01:07;;;;;;;10.25;4.35;;;22.60;87.80;;;;;;5089869;28;20055;-72
2023/03/17 12:03:46;;;;;;;9.30;4.10;;;22.60;84.50;;;;;;5087132;28;20056;-72
2023/03/17 12:06:16;;;;;;;7.03;4.20;;;22.80;85.60;;;;;;5077218;28;20045;-70
2023/03/17 12:08:53;;;;;;;7.55;4.22;;;23.00;86.40;;;;;;5086179;28;20059;-71
2023/03/17 12:11:27;;;;;;;8.68;4.75;;;23.30;84.60;;;;;;5093312;28;20146;-71
2023/03/17 12:14:25;;;;;;;7.53;4.35;;;23.00;82.30;;;;;;5088306;28;20069;-71
2023/03/17 12:16:58;;;;;;;11.35;5.40;;;23.00;81.30;;;;;;5093300;28;20063;-71
2023/03/17 12:19:27;;;;;;;5.82;4.57;;;23.20;83.40;;;;;;5088002;28;20052;-70
2023/03/17 12:21:58;;;;;;;8.45;4.70;;;23.40;82.30;;;;;;5093100;28;20112;-70
2023/03/17 12:24:49;;;;;;;10.27;4.50;;;23.40;81.30;;;;;;5099804;28;20044;-71
2023/03/17 12:27:31;;;;;;;6.60;4.80;;;23.60;77.80;;;;;;5079587;28;20404;-71
2023/03/17 12:30:16;;;;;;;13.35;4.97;;;23.40;77.30;;;;;;5082411;28;20071;-71
2023/03/17 12:32:59;;;;;;;8.77;5.10;;;22.70;79.50;;;;;;5086680;28;20037;-71
2023/03/17 12:35:34;;;;;;;9.05;4.70;;;22.50;80.50;;;;;;5072152;28;20049;-71
2023/03/17 12:38:06;;;;;;;7.22;4.72;;;22.50;81.00;;;;;;5073008;28;20044;-70
2023/03/17 12:41:07;;;;;;;9.38;5.60;;;22.50;82.00;;;;;;5073532;28;20043;-71
2023/03/17 12:43:41;;;;;;;10.20;5.50;;;22.30;79.90;;;;;;5053271;28;20099;-71
2023/03/17 12:46:21;;;;;;;10.38;5.10;;;22.00;82.20;;;;;;5073470;28;20448;-71
2023/03/17 12:48:55;;;;;;;12.77;5.80;;;21.70;83.00;;;;;;5073122;28;20044;-71
2023/03/17 12:51:44;;;;;;;7.07;5.43;;;21.30;83.40;;;;;;5070900;28;20052;-71
2023/03/17 12:54:28;;;;;;;12.07;5.70;;;20.80;84.60;;;;;;5072603;28;20048;-71
2023/03/17 12:57:25;;;;;;;9.02;5.60;;;20.90;85.40;;;;;;5073146;28;20486;-71
2023/03/17 13:00:28;;;;;;;10.43;5.70;;;21.00;85.00;;;;;;5072228;28;20054;-71
2023/03/17 13:03:12;;;;;;;12.70;6.78;;;20.90;84.70;;;;;;5072456;28;20052;-72
2023/03/17 13:05:38;;;;;;;9.60;5.53;;;20.80;84.30;;;;;;5072694;28;20072;-71